sensor_id;sensor_type;location;lat;lon;timestamp;P1;durP1;ratioP1;P2;durP2;ratioP2
64915;SDS011;51427;-27.442;153.014;2024-02-16T00:01:18;4.88;;;1.42;;
64915;SDS011;51427;-27.442;153.014;2024-02-16T00:03:45;3.20;;;1.20;;
64915;SDS011;51427;-27.442;153.014;2024-02-16T00:06:13;6.88;;;1.73;;
64915;SDS011;51427;-27.442;153.014;2024-02-16T00:08:40;4.75;;;1.25;;
64915;SDS011;51427;-27.442;153.014;2024-02-16T00:11:08;5.75;;;1.58;;
64915;SDS011;51427;-27.442;153.014;2024-02-16T00:13:35;7.60;;;1.70;;
64915;SDS011;51427;-27.442;153.014;2024-02-16T00:16:03;6.85;;;2.00;;
64915;SDS011;51427;-27.442;153.014;2024-02-16T00:18:30;6.15;;;1.60;;
64915;SDS011;51427;-27.442;153.014;2024-02-16T00:20:58;4.05;;;1.65;;
64915;SDS011;51427;-27.442;153.014;2024-02-16T00:23:27;6.57;;;1.65;;
64915;SDS011;51427;-27.442;153.014;2024-02-16T00:25:54;3.13;;;1.45;;
64915;SDS011;51427;-27.442;153.014;2024-02-16T00:28:21;6.53;;;1.50;;
64915;SDS011;51427;-27.442;153.014;2024-02-16T00:30:48;5.55;;;1.02;;
64915;SDS011;51427;-27.442;153.014;2024-02-16T00:33:16;5.78;;;1.08;;
64915;SDS011;51427;-27.442;153.014;2024-02-16T00:35:44;5.90;;;1.65;;
64915;SDS011;51427;-27.442;153.014;2024-02-16T00:38:14;9.07;;;1.40;;
64915;SDS011;51427;-27.442;153.014;2024-02-16T00:40:41;5.07;;;1.73;;
64915;SDS011;51427;-27.442;153.014;2024-02-16T00:43:10;4.47;;;1.50;;
64915;SDS011;51427;-27.442;153.014;2024-02-16T00:45:56;6.22;;;1.50;;
64915;SDS011;51427;-27.442;153.014;2024-02-16T00:48:29;7.15;;;1.75;;
64915;SDS011;51427;-27.442;153.014;2024-02-16T00:50:58;5.43;;;1.67;;
64915;SDS011;51427;-27.442;153.014;2024-02-16T00:53:29;5.65;;;1.63;;
64915;SDS011;51427;-27.442;153.014;2024-02-16T00:56:07;5.03;;;1.75;;
64915;SDS011;51427;-27.442;153.014;2024-02-16T00:58:58;7.03;;;1.90;;
64915;SDS011;51427;-27.442;153.014;2024-02-16T01:01:32;7.93;;;2.10;;
64915;SDS011;51427;-27.442;153.014;2024-02-16T01:03:59;6.70;;;1.52;;
64915;SDS011;51427;-27.442;153.014;2024-02-16T01:06:28;7.70;;;2.25;;
64915;SDS011;51427;-27.442;153.014;2024-02-16T01:08:58;10.68;;;2.40;;
64915;SDS011;51427;-27.442;153.014;2024-02-16T01:11:32;5.53;;;1.98;;
64915;SDS011;51427;-27.442;153.014;2024-02-16T01:13:59;7.43;;;2.45;;
64915;SDS011;51427;-27.442;153.014;2024-02-16T01:16:26;10.75;;;3.42;;
64915;SDS011;51427;-27.442;153.014;2024-02-16T01:18:54;6.22;;;2.95;;
64915;SDS011;51427;-27.442;153.014;2024-02-16T01:21:22;9.30;;;3.40;;
64915;SDS011;51427;-27.442;153.014;2024-02-16T01:23:50;7.28;;;3.95;;
64915;SDS011;51427;-27.442;153.014;2024-02-16T01:26:17;8.68;;;4.05;;
64915;SDS011;51427;-27.442;153.014;2024-02-16T01:28:44;5.75;;;3.30;;
64915;SDS011;51427;-27.442;153.014;2024-02-16T01:31:17;7.60;;;4.07;;
64915;SDS011;51427;-27.442;153.014;2024-02-16T01:33:49;10.20;;;3.80;;
64915;SDS011;51427;-27.442;153.014;2024-02-16T01:36:37;10.63;;;4.07;;
64915;SDS011;51427;-27.442;153.014;2024-02-16T01:39:13;8.13;;;3.38;;
64915;SDS011;51427;-27.442;153.014;2024-02-16T01:41:41;8.10;;;2.70;;
64915;SDS011;51427;-27.442;153.014;2024-02-16T01:44:08;7.70;;;2.90;;
64915;SDS011;51427;-27.442;153.014;2024-02-16T01:46:36;7.80;;;2.20;;
64915;SDS011;51427;-27.442;153.014;2024-02-16T01:49:03;6.07;;;2.15;;
64915;SDS011;51427;-27.442;153.014;2024-02-16T01:51:30;7.47;;;2.40;;
64915;SDS011;51427;-27.442;153.014;2024-02-16T01:53:58;6.70;;;2.35;;
64915;SDS011;51427;-27.442;153.014;2024-02-16T01:56:27;12.02;;;2.53;;
64915;SDS011;51427;-27.442;153.014;2024-02-16T01:58:54;10.98;;;2.35;;
64915;SDS011;51427;-27.442;153.014;2024-02-16T02:01:21;5.47;;;2.08;;
64915;SDS011;51427;-27.442;153.014;2024-02-16T02:03:49;7.50;;;2.28;;
64915;SDS011;51427;-27.442;153.014;2024-02-16T02:06:16;5.28;;;1.77;;
64915;SDS011;51427;-27.442;153.014;2024-02-16T02:08:44;10.25;;;2.45;;
64915;SDS011;51427;-27.442;153.014;2024-02-16T02:11:11;8.18;;;2.22;;
64915;SDS011;51427;-27.442;153.014;2024-02-16T02:13:38;7.05;;;2.08;;
64915;SDS011;51427;-27.442;153.014;2024-02-16T02:16:07;5.57;;;2.45;;
64915;SDS011;51427;-27.442;153.014;2024-02-16T02:18:36;5.15;;;1.65;;
64915;SDS011;51427;-27.442;153.014;2024-02-16T02:21:03;8.05;;;1.90;;
64915;SDS011;51427;-27.442;153.014;2024-02-16T02:23:31;5.63;;;1.73;;
64915;SDS011;51427;-27.442;153.014;2024-02-16T02:25:59;4.63;;;1.98;;
64915;SDS011;51427;-27.442;153.014;2024-02-16T02:28:26;7.53;;;2.75;;
64915;SDS011;51427;-27.442;153.014;2024-02-16T02:30:55;8.27;;;3.17;;
64915;SDS011;51427;-27.442;153.014;2024-02-16T02:33:22;11.45;;;4.50;;
64915;SDS011;51427;-27.442;153.014;2024-02-16T02:35:50;11.02;;;4.45;;
64915;SDS011;51427;-27.442;153.014;2024-02-16T02:38:18;11.43;;;4.38;;
64915;SDS011;51427;-27.442;153.014;2024-02-16T02:40:45;9.15;;;4.00;;
64915;SDS011;51427;-27.442;153.014;2024-02-16T02:43:12;8.80;;;4.60;;
64915;SDS011;51427;-27.442;153.014;2024-02-16T02:45:40;12.07;;;4.32;;
64915;SDS011;51427;-27.442;153.014;2024-02-16T02:48:07;10.43;;;4.60;;
64915;SDS011;51427;-27.442;153.014;2024-02-16T02:50:35;9.07;;;4.70;;
64915;SDS011;51427;-27.442;153.014;2024-02-16T02:53:02;13.57;;;5.13;;
64915;SDS011;51427;-27.442;153.014;2024-02-16T02:55:29;10.35;;;3.67;;
64915;SDS011;51427;-27.442;153.014;2024-02-16T02:57:57;8.52;;;3.63;;
64915;SDS011;51427;-27.442;153.014;2024-02-16T03:00:24;10.32;;;3.05;;
64915;SDS011;51427;-27.442;153.014;2024-02-16T03:02:51;9.93;;;3.67;;
64915;SDS011;51427;-27.442;153.014;2024-02-16T03:05:19;6.68;;;2.88;;
64915;SDS011;51427;-27.442;153.014;2024-02-16T03:07:47;12.02;;;3.22;;
64915;SDS011;51427;-27.442;153.014;2024-02-16T03:10:14;6.65;;;2.15;;
64915;SDS011;51427;-27.442;153.014;2024-02-16T03:12:46;9.43;;;2.70;;
64915;SDS011;51427;-27.442;153.014;2024-02-16T03:15:16;8.68;;;3.10;;
64915;SDS011;51427;-27.442;153.014;2024-02-16T03:17:43;9.80;;;2.50;;
64915;SDS011;51427;-27.442;153.014;2024-02-16T03:20:11;10.45;;;2.80;;
64915;SDS011;51427;-27.442;153.014;2024-02-16T03:22:38;8.23;;;2.67;;
64915;SDS011;51427;-27.442;153.014;2024-02-16T03:25:05;6.65;;;2.90;;
64915;SDS011;51427;-27.442;153.014;2024-02-16T03:27:33;9.30;;;3.50;;
64915;SDS011;51427;-27.442;153.014;2024-02-16T03:30:00;7.82;;;2.90;;
64915;SDS011;51427;-27.442;153.014;2024-02-16T03:32:28;9.70;;;3.22;;
64915;SDS011;51427;-27.442;153.014;2024-02-16T03:34:56;6.95;;;2.67;;
64915;SDS011;51427;-27.442;153.014;2024-02-16T03:37:24;10.25;;;3.60;;
64915;SDS011;51427;-27.442;153.014;2024-02-16T03:39:51;7.80;;;3.25;;
64915;SDS011;51427;-27.442;153.014;2024-02-16T03:42:21;12.48;;;4.97;;
64915;SDS011;51427;-27.442;153.014;2024-02-16T03:44:49;10.82;;;4.40;;
64915;SDS011;51427;-27.442;153.014;2024-02-16T03:47:16;12.48;;;4.80;;
64915;SDS011;51427;-27.442;153.014;2024-02-16T03:49:44;10.73;;;3.38;;
64915;SDS011;51427;-27.442;153.014;2024-02-16T03:52:11;10.57;;;3.45;;
64915;SDS011;51427;-27.442;153.014;2024-02-16T03:54:39;10.93;;;3.28;;
64915;SDS011;51427;-27.442;153.014;2024-02-16T03:57:09;6.28;;;2.97;;
64915;SDS011;51427;-27.442;153.014;2024-02-16T03:59:37;11.60;;;2.97;;
64915;SDS011;51427;-27.442;153.014;2024-02-16T04:02:05;12.75;;;3.50;;
64915;SDS011;51427;-27.442;153.014;2024-02-16T04:04:32;8.48;;;3.33;;
64915;SDS011;51427;-27.442;153.014;2024-02-16T04:06:59;8.35;;;2.80;;
64915;SDS011;51427;-27.442;153.014;2024-02-16T04:09:27;11.77;;;2.90;;
64915;SDS011;51427;-27.442;153.014;2024-02-16T04:11:54;8.45;;;2.55;;
64915;SDS011;51427;-27.442;153.014;2024-02-16T04:14:21;7.93;;;2.80;;
64915;SDS011;51427;-27.442;153.014;2024-02-16T04:16:49;7.65;;;2.80;;
64915;SDS011;51427;-27.442;153.014;2024-02-16T04:19:17;7.15;;;2.45;;
64915;SDS011;51427;-27.442;153.014;2024-02-16T04:21:44;9.65;;;2.78;;
64915;SDS011;51427;-27.442;153.014;2024-02-16T04:24:12;7.53;;;2.30;;
64915;SDS011;51427;-27.442;153.014;2024-02-16T04:26:39;7.75;;;2.60;;
64915;SDS011;51427;-27.442;153.014;2024-02-16T04:29:06;10.90;;;2.30;;
64915;SDS011;51427;-27.442;153.014;2024-02-16T04:31:33;9.30;;;2.17;;
64915;SDS011;51427;-27.442;153.014;2024-02-16T04:34:01;8.82;;;2.15;;
64915;SDS011;51427;-27.442;153.014;2024-02-16T04:36:28;7.45;;;2.35;;
64915;SDS011;51427;-27.442;153.014;2024-02-16T04:38:55;9.75;;;2.05;;
64915;SDS011;51427;-27.442;153.014;2024-02-16T04:41:23;8.95;;;2.00;;
64915;SDS011;51427;-27.442;153.014;2024-02-16T04:43:50;9.63;;;2.08;;
64915;SDS011;51427;-27.442;153.014;2024-02-16T04:46:18;8.27;;;2.42;;
64915;SDS011;51427;-27.442;153.014;2024-02-16T04:48:46;10.68;;;2.35;;
64915;SDS011;51427;-27.442;153.014;2024-02-16T04:51:14;8.23;;;2.08;;
64915;SDS011;51427;-27.442;153.014;2024-02-16T04:53:41;7.60;;;1.95;;
64915;SDS011;51427;-27.442;153.014;2024-02-16T04:56:08;7.00;;;2.00;;
64915;SDS011;51427;-27.442;153.014;2024-02-16T04:58:39;9.57;;;2.25;;
64915;SDS011;51427;-27.442;153.014;2024-02-16T05:01:09;9.68;;;2.15;;
64915;SDS011;51427;-27.442;153.014;2024-02-16T05:03:36;9.68;;;2.20;;
64915;SDS011;51427;-27.442;153.014;2024-02-16T05:06:06;8.02;;;2.00;;
64915;SDS011;51427;-27.442;153.014;2024-02-16T05:08:34;6.88;;;2.00;;
64915;SDS011;51427;-27.442;153.014;2024-02-16T05:11:01;6.72;;;2.08;;
64915;SDS011;51427;-27.442;153.014;2024-02-16T05:13:28;4.55;;;2.00;;
64915;SDS011;51427;-27.442;153.014;2024-02-16T05:15:55;6.93;;;1.50;;
64915;SDS011;51427;-27.442;153.014;2024-02-16T05:18:23;7.45;;;2.13;;
64915;SDS011;51427;-27.442;153.014;2024-02-16T05:20:50;5.85;;;1.38;;
64915;SDS011;51427;-27.442;153.014;2024-02-16T05:23:18;8.30;;;2.00;;
64915;SDS011;51427;-27.442;153.014;2024-02-16T05:25:45;9.02;;;1.77;;
64915;SDS011;51427;-27.442;153.014;2024-02-16T05:28:12;9.90;;;1.45;;
64915;SDS011;51427;-27.442;153.014;2024-02-16T05:30:39;9.50;;;1.75;;
64915;SDS011;51427;-27.442;153.014;2024-02-16T05:33:07;5.10;;;1.45;;
64915;SDS011;51427;-27.442;153.014;2024-02-16T05:35:34;6.03;;;1.70;;
64915;SDS011;51427;-27.442;153.014;2024-02-16T05:38:05;4.97;;;1.50;;
64915;SDS011;51427;-27.442;153.014;2024-02-16T05:40:36;7.80;;;1.70;;
64915;SDS011;51427;-27.442;153.014;2024-02-16T05:43:22;7.88;;;1.70;;
64915;SDS011;51427;-27.442;153.014;2024-02-16T05:45:49;8.15;;;1.83;;
64915;SDS011;51427;-27.442;153.014;2024-02-16T05:48:17;8.23;;;1.77;;
64915;SDS011;51427;-27.442;153.014;2024-02-16T05:50:45;8.15;;;1.67;;
64915;SDS011;51427;-27.442;153.014;2024-02-16T05:53:12;2.88;;;1.35;;
64915;SDS011;51427;-27.442;153.014;2024-02-16T05:55:39;4.45;;;1.50;;
64915;SDS011;51427;-27.442;153.014;2024-02-16T05:58:10;5.38;;;1.23;;
64915;SDS011;51427;-27.442;153.014;2024-02-16T06:00:38;4.30;;;1.40;;
64915;SDS011;51427;-27.442;153.014;2024-02-16T06:03:05;6.13;;;1.58;;
64915;SDS011;51427;-27.442;153.014;2024-02-16T06:05:33;5.18;;;1.20;;
64915;SDS011;51427;-27.442;153.014;2024-02-16T06:08:00;9.18;;;1.67;;
64915;SDS011;51427;-27.442;153.014;2024-02-16T06:10:27;8.30;;;1.40;;
64915;SDS011;51427;-27.442;153.014;2024-02-16T06:12:54;5.90;;;1.30;;
64915;SDS011;51427;-27.442;153.014;2024-02-16T06:15:22;10.65;;;1.73;;
64915;SDS011;51427;-27.442;153.014;2024-02-16T06:17:49;4.95;;;1.10;;
64915;SDS011;51427;-27.442;153.014;2024-02-16T06:20:16;4.07;;;1.08;;
64915;SDS011;51427;-27.442;153.014;2024-02-16T06:22:44;5.03;;;1.05;;
64915;SDS011;51427;-27.442;153.014;2024-02-16T06:25:11;7.80;;;1.13;;
64915;SDS011;51427;-27.442;153.014;2024-02-16T06:27:38;5.78;;;1.42;;
64915;SDS011;51427;-27.442;153.014;2024-02-16T06:30:06;6.90;;;1.65;;
64915;SDS011;51427;-27.442;153.014;2024-02-16T06:32:38;5.47;;;1.40;;
64915;SDS011;51427;-27.442;153.014;2024-02-16T06:35:09;4.88;;;1.25;;
64915;SDS011;51427;-27.442;153.014;2024-02-16T06:37:36;5.03;;;1.02;;
64915;SDS011;51427;-27.442;153.014;2024-02-16T06:40:05;3.58;;;1.00;;
64915;SDS011;51427;-27.442;153.014;2024-02-16T06:42:36;5.18;;;1.15;;
64915;SDS011;51427;-27.442;153.014;2024-02-16T06:45:04;4.10;;;0.93;;
64915;SDS011;51427;-27.442;153.014;2024-02-16T06:47:32;3.65;;;1.00;;
64915;SDS011;51427;-27.442;153.014;2024-02-16T06:49:59;3.33;;;0.85;;
64915;SDS011;51427;-27.442;153.014;2024-02-16T06:52:26;5.32;;;1.20;;
64915;SDS011;51427;-27.442;153.014;2024-02-16T06:54:54;6.40;;;1.02;;
64915;SDS011;51427;-27.442;153.014;2024-02-16T06:57:21;3.38;;;1.00;;
64915;SDS011;51427;-27.442;153.014;2024-02-16T06:59:50;5.32;;;1.27;;
64915;SDS011;51427;-27.442;153.014;2024-02-16T07:02:19;4.80;;;1.08;;
64915;SDS011;51427;-27.442;153.014;2024-02-16T07:04:46;3.92;;;1.20;;
64915;SDS011;51427;-27.442;153.014;2024-02-16T07:07:13;4.60;;;1.58;;
64915;SDS011;51427;-27.442;153.014;2024-02-16T07:09:41;3.13;;;1.23;;
64915;SDS011;51427;-27.442;153.014;2024-02-16T07:12:08;4.90;;;1.88;;
64915;SDS011;51427;-27.442;153.014;2024-02-16T07:14:38;4.10;;;1.52;;
64915;SDS011;51427;-27.442;153.014;2024-02-16T07:17:05;5.47;;;1.85;;
64915;SDS011;51427;-27.442;153.014;2024-02-16T07:19:35;8.05;;;2.20;;
64915;SDS011;51427;-27.442;153.014;2024-02-16T07:22:03;3.90;;;2.13;;
64915;SDS011;51427;-27.442;153.014;2024-02-16T07:24:32;6.38;;;2.50;;
64915;SDS011;51427;-27.442;153.014;2024-02-16T07:26:59;3.35;;;2.40;;
64915;SDS011;51427;-27.442;153.014;2024-02-16T07:29:27;7.60;;;2.28;;
64915;SDS011;51427;-27.442;153.014;2024-02-16T07:31:54;7.28;;;2.20;;
64915;SDS011;51427;-27.442;153.014;2024-02-16T07:34:22;8.73;;;2.30;;
64915;SDS011;51427;-27.442;153.014;2024-02-16T07:36:49;5.28;;;2.05;;
64915;SDS011;51427;-27.442;153.014;2024-02-16T07:39:17;7.38;;;2.30;;
64915;SDS011;51427;-27.442;153.014;2024-02-16T07:41:48;8.18;;;2.30;;
64915;SDS011;51427;-27.442;153.014;2024-02-16T07:44:15;11.85;;;2.38;;
64915;SDS011;51427;-27.442;153.014;2024-02-16T07:46:42;6.40;;;2.08;;
64915;SDS011;51427;-27.442;153.014;2024-02-16T07:49:11;4.95;;;2.00;;
64915;SDS011;51427;-27.442;153.014;2024-02-16T07:51:39;5.65;;;1.77;;
64915;SDS011;51427;-27.442;153.014;2024-02-16T07:54:07;3.75;;;1.98;;
64915;SDS011;51427;-27.442;153.014;2024-02-16T07:56:34;7.75;;;2.50;;
64915;SDS011;51427;-27.442;153.014;2024-02-16T07:59:01;7.80;;;2.30;;
64915;SDS011;51427;-27.442;153.014;2024-02-16T08:01:29;7.30;;;1.90;;
64915;SDS011;51427;-27.442;153.014;2024-02-16T08:03:56;9.75;;;2.00;;
64915;SDS011;51427;-27.442;153.014;2024-02-16T08:06:27;9.27;;;1.98;;
64915;SDS011;51427;-27.442;153.014;2024-02-16T08:08:54;6.00;;;1.75;;
64915;SDS011;51427;-27.442;153.014;2024-02-16T08:11:22;5.97;;;1.63;;
64915;SDS011;51427;-27.442;153.014;2024-02-16T08:13:49;11.88;;;3.35;;
64915;SDS011;51427;-27.442;153.014;2024-02-16T08:16:17;7.28;;;3.17;;
64915;SDS011;51427;-27.442;153.014;2024-02-16T08:18:44;9.95;;;2.45;;
64915;SDS011;51427;-27.442;153.014;2024-02-16T08:21:11;8.02;;;2.10;;
64915;SDS011;51427;-27.442;153.014;2024-02-16T08:23:39;5.93;;;2.10;;
64915;SDS011;51427;-27.442;153.014;2024-02-16T08:26:06;7.75;;;2.28;;
64915;SDS011;51427;-27.442;153.014;2024-02-16T08:28:33;8.02;;;2.13;;
64915;SDS011;51427;-27.442;153.014;2024-02-16T08:31:00;6.43;;;1.90;;
64915;SDS011;51427;-27.442;153.014;2024-02-16T08:33:28;7.03;;;2.15;;
64915;SDS011;51427;-27.442;153.014;2024-02-16T08:35:55;6.43;;;1.85;;
64915;SDS011;51427;-27.442;153.014;2024-02-16T08:38:22;5.93;;;2.30;;
64915;SDS011;51427;-27.442;153.014;2024-02-16T08:40:50;7.72;;;2.10;;
64915;SDS011;51427;-27.442;153.014;2024-02-16T08:43:17;9.68;;;2.55;;
64915;SDS011;51427;-27.442;153.014;2024-02-16T08:45:44;7.07;;;2.40;;
64915;SDS011;51427;-27.442;153.014;2024-02-16T08:48:12;8.80;;;3.35;;
64915;SDS011;51427;-27.442;153.014;2024-02-16T08:50:39;7.80;;;2.55;;
64915;SDS011;51427;-27.442;153.014;2024-02-16T08:53:06;6.63;;;3.58;;
64915;SDS011;51427;-27.442;153.014;2024-02-16T08:55:36;5.07;;;3.15;;
64915;SDS011;51427;-27.442;153.014;2024-02-16T08:58:03;8.80;;;3.47;;
64915;SDS011;51427;-27.442;153.014;2024-02-16T09:00:30;8.68;;;5.15;;
64915;SDS011;51427;-27.442;153.014;2024-02-16T09:02:57;9.02;;;3.95;;
64915;SDS011;51427;-27.442;153.014;2024-02-16T09:05:28;12.75;;;4.63;;
64915;SDS011;51427;-27.442;153.014;2024-02-16T09:07:55;11.90;;;3.75;;
64915;SDS011;51427;-27.442;153.014;2024-02-16T09:10:22;6.95;;;3.17;;
64915;SDS011;51427;-27.442;153.014;2024-02-16T09:12:50;8.90;;;2.78;;
64915;SDS011;51427;-27.442;153.014;2024-02-16T09:15:24;4.70;;;2.13;;
64915;SDS011;51427;-27.442;153.014;2024-02-16T09:17:51;7.28;;;2.30;;
64915;SDS011;51427;-27.442;153.014;2024-02-16T09:20:19;5.00;;;2.22;;
64915;SDS011;51427;-27.442;153.014;2024-02-16T09:22:48;5.30;;;2.40;;
64915;SDS011;51427;-27.442;153.014;2024-02-16T09:25:15;7.55;;;3.30;;
64915;SDS011;51427;-27.442;153.014;2024-02-16T09:27:42;8.85;;;4.07;;
64915;SDS011;51427;-27.442;153.014;2024-02-16T09:30:11;7.22;;;4.25;;
64915;SDS011;51427;-27.442;153.014;2024-02-16T09:32:39;6.65;;;4.03;;
64915;SDS011;51427;-27.442;153.014;2024-02-16T09:35:08;6.90;;;3.60;;
64915;SDS011;51427;-27.442;153.014;2024-02-16T09:37:35;6.35;;;3.38;;
64915;SDS011;51427;-27.442;153.014;2024-02-16T09:40:03;7.22;;;3.97;;
64915;SDS011;51427;-27.442;153.014;2024-02-16T09:42:31;7.43;;;3.58;;
64915;SDS011;51427;-27.442;153.014;2024-02-16T09:45:00;9.60;;;6.15;;
64915;SDS011;51427;-27.442;153.014;2024-02-16T09:47:27;8.02;;;4.90;;
64915;SDS011;51427;-27.442;153.014;2024-02-16T09:49:58;11.50;;;5.72;;
64915;SDS011;51427;-27.442;153.014;2024-02-16T09:52:25;10.02;;;4.72;;
64915;SDS011;51427;-27.442;153.014;2024-02-16T09:54:53;7.15;;;4.22;;
64915;SDS011;51427;-27.442;153.014;2024-02-16T09:57:21;12.25;;;5.00;;
64915;SDS011;51427;-27.442;153.014;2024-02-16T09:59:48;9.63;;;4.18;;
64915;SDS011;51427;-27.442;153.014;2024-02-16T10:02:15;5.97;;;3.28;;
64915;SDS011;51427;-27.442;153.014;2024-02-16T10:04:43;8.85;;;3.83;;
64915;SDS011;51427;-27.442;153.014;2024-02-16T10:07:10;6.72;;;3.63;;
64915;SDS011;51427;-27.442;153.014;2024-02-16T10:09:39;10.30;;;3.70;;
64915;SDS011;51427;-27.442;153.014;2024-02-16T10:12:06;6.10;;;3.20;;
64915;SDS011;51427;-27.442;153.014;2024-02-16T10:14:34;5.72;;;2.70;;
64915;SDS011;51427;-27.442;153.014;2024-02-16T10:17:01;7.22;;;2.83;;
64915;SDS011;51427;-27.442;153.014;2024-02-16T10:19:30;7.13;;;2.78;;
64915;SDS011;51427;-27.442;153.014;2024-02-16T10:22:08;3.85;;;2.20;;
64915;SDS011;51427;-27.442;153.014;2024-02-16T10:24:36;6.93;;;2.45;;
64915;SDS011;51427;-27.442;153.014;2024-02-16T10:27:05;10.68;;;3.20;;
64915;SDS011;51427;-27.442;153.014;2024-02-16T10:29:32;6.78;;;2.35;;
64915;SDS011;51427;-27.442;153.014;2024-02-16T10:32:00;6.00;;;2.28;;
64915;SDS011;51427;-27.442;153.014;2024-02-16T10:34:27;5.05;;;1.73;;
64915;SDS011;51427;-27.442;153.014;2024-02-16T10:36:55;6.13;;;2.00;;
64915;SDS011;51427;-27.442;153.014;2024-02-16T10:39:23;5.63;;;2.28;;
64915;SDS011;51427;-27.442;153.014;2024-02-16T10:41:51;7.07;;;2.10;;
64915;SDS011;51427;-27.442;153.014;2024-02-16T10:44:19;5.18;;;1.98;;
64915;SDS011;51427;-27.442;153.014;2024-02-16T10:46:46;6.80;;;2.03;;
64915;SDS011;51427;-27.442;153.014;2024-02-16T10:49:13;6.68;;;2.25;;
64915;SDS011;51427;-27.442;153.014;2024-02-16T10:51:44;6.00;;;2.58;;
64915;SDS011;51427;-27.442;153.014;2024-02-16T10:54:15;4.68;;;2.42;;
64915;SDS011;51427;-27.442;153.014;2024-02-16T10:56:44;5.07;;;2.03;;
64915;SDS011;51427;-27.442;153.014;2024-02-16T10:59:12;4.05;;;1.88;;
64915;SDS011;51427;-27.442;153.014;2024-02-16T11:01:40;5.10;;;2.53;;
64915;SDS011;51427;-27.442;153.014;2024-02-16T11:04:08;4.15;;;1.98;;
64915;SDS011;51427;-27.442;153.014;2024-02-16T11:06:54;5.35;;;2.28;;
64915;SDS011;51427;-27.442;153.014;2024-02-16T11:09:28;6.10;;;2.30;;
64915;SDS011;51427;-27.442;153.014;2024-02-16T11:12:02;7.15;;;2.00;;
64915;SDS011;51427;-27.442;153.014;2024-02-16T11:14:37;6.80;;;2.38;;
64915;SDS011;51427;-27.442;153.014;2024-02-16T11:17:11;5.47;;;2.78;;
64915;SDS011;51427;-27.442;153.014;2024-02-16T11:19:43;4.30;;;2.13;;
64915;SDS011;51427;-27.442;153.014;2024-02-16T11:22:14;6.00;;;3.33;;
64915;SDS011;51427;-27.442;153.014;2024-02-16T11:24:46;6.72;;;2.65;;
64915;SDS011;51427;-27.442;153.014;2024-02-16T11:27:19;6.65;;;2.42;;
64915;SDS011;51427;-27.442;153.014;2024-02-16T11:29:47;4.60;;;2.30;;
64915;SDS011;51427;-27.442;153.014;2024-02-16T11:32:15;7.10;;;2.70;;
64915;SDS011;51427;-27.442;153.014;2024-02-16T11:34:42;6.72;;;2.67;;
64915;SDS011;51427;-27.442;153.014;2024-02-16T11:37:09;4.80;;;2.00;;
64915;SDS011;51427;-27.442;153.014;2024-02-16T11:39:42;4.10;;;2.45;;
64915;SDS011;51427;-27.442;153.014;2024-02-16T11:42:12;6.65;;;2.03;;
64915;SDS011;51427;-27.442;153.014;2024-02-16T11:44:49;4.72;;;1.65;;
64915;SDS011;51427;-27.442;153.014;2024-02-16T11:47:21;4.65;;;1.95;;
64915;SDS011;51427;-27.442;153.014;2024-02-16T11:50:05;3.70;;;1.60;;
64915;SDS011;51427;-27.442;153.014;2024-02-16T11:52:40;6.05;;;1.58;;
64915;SDS011;51427;-27.442;153.014;2024-02-16T11:55:08;4.55;;;1.65;;
64915;SDS011;51427;-27.442;153.014;2024-02-16T11:57:37;7.72;;;1.98;;
64915;SDS011;51427;-27.442;153.014;2024-02-16T12:00:04;5.40;;;1.80;;
64915;SDS011;51427;-27.442;153.014;2024-02-16T12:02:40;5.25;;;1.50;;
64915;SDS011;51427;-27.442;153.014;2024-02-16T12:05:07;3.72;;;1.90;;
64915;SDS011;51427;-27.442;153.014;2024-02-16T12:07:38;4.78;;;1.50;;
64915;SDS011;51427;-27.442;153.014;2024-02-16T12:10:06;3.92;;;1.40;;
64915;SDS011;51427;-27.442;153.014;2024-02-16T12:12:34;8.00;;;1.80;;
64915;SDS011;51427;-27.442;153.014;2024-02-16T12:15:02;3.63;;;1.20;;
64915;SDS011;51427;-27.442;153.014;2024-02-16T12:17:31;2.88;;;1.23;;
64915;SDS011;51427;-27.442;153.014;2024-02-16T12:19:58;5.25;;;1.35;;
64915;SDS011;51427;-27.442;153.014;2024-02-16T12:22:26;5.20;;;1.17;;
64915;SDS011;51427;-27.442;153.014;2024-02-16T12:24:53;6.40;;;1.30;;
64915;SDS011;51427;-27.442;153.014;2024-02-16T12:27:20;2.75;;;1.20;;
64915;SDS011;51427;-27.442;153.014;2024-02-16T12:29:47;4.43;;;1.05;;
64915;SDS011;51427;-27.442;153.014;2024-02-16T12:32:15;4.40;;;1.30;;
64915;SDS011;51427;-27.442;153.014;2024-02-16T12:34:44;5.43;;;1.33;;
64915;SDS011;51427;-27.442;153.014;2024-02-16T12:37:11;4.97;;;1.10;;
64915;SDS011;51427;-27.442;153.014;2024-02-16T12:39:39;9.93;;;1.48;;
64915;SDS011;51427;-27.442;153.014;2024-02-16T12:42:06;4.85;;;1.30;;
64915;SDS011;51427;-27.442;153.014;2024-02-16T12:44:33;5.13;;;1.10;;
64915;SDS011;51427;-27.442;153.014;2024-02-16T12:47:01;7.75;;;1.75;;
64915;SDS011;51427;-27.442;153.014;2024-02-16T12:49:28;3.42;;;1.17;;
64915;SDS011;51427;-27.442;153.014;2024-02-16T12:51:55;5.53;;;1.40;;
64915;SDS011;51427;-27.442;153.014;2024-02-16T12:54:23;3.83;;;1.40;;
64915;SDS011;51427;-27.442;153.014;2024-02-16T12:56:50;8.38;;;1.70;;
64915;SDS011;51427;-27.442;153.014;2024-02-16T12:59:19;4.25;;;1.13;;
64915;SDS011;51427;-27.442;153.014;2024-02-16T13:01:46;4.95;;;1.35;;
64915;SDS011;51427;-27.442;153.014;2024-02-16T13:04:14;4.55;;;0.98;;
64915;SDS011;51427;-27.442;153.014;2024-02-16T13:06:47;4.63;;;1.35;;
64915;SDS011;51427;-27.442;153.014;2024-02-16T13:09:14;4.90;;;1.27;;
64915;SDS011;51427;-27.442;153.014;2024-02-16T13:11:41;5.95;;;1.30;;
64915;SDS011;51427;-27.442;153.014;2024-02-16T13:14:09;4.65;;;1.20;;
64915;SDS011;51427;-27.442;153.014;2024-02-16T13:16:36;6.18;;;1.23;;
64915;SDS011;51427;-27.442;153.014;2024-02-16T13:19:03;6.32;;;1.35;;
64915;SDS011;51427;-27.442;153.014;2024-02-16T13:21:31;6.65;;;1.80;;
64915;SDS011;51427;-27.442;153.014;2024-02-16T13:23:58;6.13;;;1.35;;
64915;SDS011;51427;-27.442;153.014;2024-02-16T13:26:26;6.45;;;1.33;;
64915;SDS011;51427;-27.442;153.014;2024-02-16T13:28:53;3.78;;;1.15;;
64915;SDS011;51427;-27.442;153.014;2024-02-16T13:31:21;8.35;;;1.80;;
64915;SDS011;51427;-27.442;153.014;2024-02-16T13:33:49;4.97;;;1.20;;
64915;SDS011;51427;-27.442;153.014;2024-02-16T13:36:19;5.50;;;1.42;;
64915;SDS011;51427;-27.442;153.014;2024-02-16T13:38:47;4.15;;;1.27;;
64915;SDS011;51427;-27.442;153.014;2024-02-16T13:41:16;1.92;;;0.95;;
64915;SDS011;51427;-27.442;153.014;2024-02-16T13:43:44;6.75;;;1.38;;
64915;SDS011;51427;-27.442;153.014;2024-02-16T13:46:12;2.10;;;1.00;;
64915;SDS011;51427;-27.442;153.014;2024-02-16T13:48:40;4.63;;;1.17;;
64915;SDS011;51427;-27.442;153.014;2024-02-16T13:51:08;5.60;;;1.40;;
64915;SDS011;51427;-27.442;153.014;2024-02-16T13:53:35;8.95;;;1.60;;
64915;SDS011;51427;-27.442;153.014;2024-02-16T13:56:04;4.65;;;1.80;;
64915;SDS011;51427;-27.442;153.014;2024-02-16T13:58:31;2.80;;;1.20;;
64915;SDS011;51427;-27.442;153.014;2024-02-16T14:01:00;5.63;;;1.35;;
64915;SDS011;51427;-27.442;153.014;2024-02-16T14:03:31;4.25;;;1.05;;
64915;SDS011;51427;-27.442;153.014;2024-02-16T14:05:59;4.30;;;1.75;;
64915;SDS011;51427;-27.442;153.014;2024-02-16T14:08:26;3.30;;;1.33;;
64915;SDS011;51427;-27.442;153.014;2024-02-16T14:10:54;3.70;;;1.73;;
64915;SDS011;51427;-27.442;153.014;2024-02-16T14:13:21;6.47;;;1.40;;
64915;SDS011;51427;-27.442;153.014;2024-02-16T14:15:50;3.85;;;1.70;;